Matt Karns Memorial Circle of Care 5K
San Antonio, TX
April 22, 2017
     
Results by iaapweb.com  
Software by ChuckScore  
     
Male 1-12 13-19 20-29 30-39 40-49 50-59 60-99
Female 1-12 13-19 20-29 30-39 40-49 50-59 60-99
Top Male
  Overall Overall State/
Place Name Bib Gun Chip Pace Place by Sex City County
1 Long,Justin 2022 17:51.2 17:51.2 5:45 1 1 Cibolo TX
Go To Top
Top Female
  Overall Overall State/
Place Name Bib Gun Chip Pace Place by Sex City County
1 Diemer,Claire 1614 21:27.5 21:27.3 6:54 4 1 San Antonio TX
Go To Top
1-12 Male
  Overall Overall State/
Place Name Bib Gun Chip Pace Place by Sex City County
1 Hoke,Landon 2337 25:47.6 25:47.6 8:18 20 19 San Antonio TX
2 Pearce,Jase 1681 35:14.7 34:23.6 11:04 79 42 Bulverde TX
3 Temple,Grant 1885 36:48.7 35:49.3 11:32 95 48 San Antonio TX
4 Estrada,Elihah 1513 36:56.8 36:29.1 11:45 97 49 San Antonio TX
5 Temple,George 1884 40:26.9 39:27.9 12:42 113 56 San Antonio TX
6 Gensheimer,Paul 1803 46:06.4 44:48.0 14:25 143 66 Schertz TX
7 Payne,Robert 1847 52:09.6 50:48.3 16:21 178 75 San Antonio TX
8 Pina,Noah 1685 55:30.6 54:47.8 17:38 220 88 San Antonio TX
9 Gonzales,Giovani 2327 58:13.8 57:21.7 18:28 263 97 Converse TX
Go To Top
13-19 Male
  Overall Overall State/
Place Name Bib Gun Chip Pace Place by Sex City County
1 Beckman,Evan 2366 24:09.5 24:06.9 7:46 13 12 Helotes TX
2 Garcia,Lucas 2013 27:51.7 27:45.5 8:56 34 27 Canyon Lake TX
3 Arredondo,Marco 2231 29:27.9 29:19.0 9:26 44 32 San Antonio TX
4 Garcia,Camden 2014 33:41.6 33:35.3 10:49 71 40 Canyon Lake TX
5 Mcfarlane,Hunter 2025 37:02.7 36:55.9 11:53 102 51 San Antonio TX
6 Andal,Seth Cullen 2078 40:37.9 40:16.6 12:58 125 60 San Antonio TX
7 Rocha,Alejandro 1855 51:44.2 51:08.0 16:27 184 78 San Antonio TX
8 Higgerson,Ian 2064 54:01.5 53:29.3 17:13 211 83 San Antonio TX
9 Delafuente,Jeffrey 1928 56:05.6 55:09.3 17:45 228 90 San Antonio TX
10 Deleon,Michael 2340 58:42.5 58:11.2 18:44 275 102 San Antonio TX
11 Stone,Grant 2298 1:03:52.5 1:02:51.3 20:14 299 112 San Antonio TX
12 Gibbs,Jordon 1735 1:07:31.3 1:06:25.8 21:23 313 116 San Antonio TX
Go To Top
20-29 Male
  Overall Overall State/
Place Name Bib Gun Chip Pace Place by Sex City County
1 Cline,Christopher 2323 23:04.9 22:54.1 7:22 6 5 Boerne TX
2 Gamez,Gabriel 2251 23:06.9 23:05.8 7:26 7 6 Converse TX
3 Harris,John Paul 2331 23:26.9 23:26.0 7:33 10 9 San Antonio TX
4 Todd,Eric 1708 24:55.7 24:55.1 8:01 16 15 San Antonio TX
5 Peterson,Adam 2069 27:25.0 27:02.5 8:42 28 22 San Antonio TX
6 Sanmiguel,Roel 2051 28:05.3 27:10.8 8:45 30 23 San Antonio TX
7 Mazick,Jordan 1668 28:33.5 28:32.3 9:11 42 31 San Antonio TX
8 Reere,Thomas 2363 30:56.2 30:18.7 9:45 51 34 Boerne TX
9 Ehler,Lara 1618 35:15.6 34:25.7 11:05 81 43 San Antonio TX
10 Cisne,Andre 2349 40:31.7 39:53.5 12:50 117 57 San Antonio TX
11 Wood,Micah 1712 42:38.8 42:15.3 13:36 132 62 San Antonio TX
12 Le,Lam 1652 43:05.0 42:53.5 13:48 138 64 San Antonio TX
13 Davila,Steven 2329 55:44.1 54:01.5 17:23 216 86 San Antonio TX
14 Saenz,Daniel 1862 56:25.0 55:26.6 17:51 237 92 Boerne TX
15 Muennink,Lance 1675 58:59.7 56:18.6 18:07 247 95 Hondo TX
16 Wagle,Rajesh 1765 57:28.6 57:22.7 18:28 264 98 San Antonio TX
17 Salinas,Greg 1921 1:01:37.3 1:01:24.0 19:46 296 111 San Antonio TX
Go To Top
30-39 Male
  Overall Overall State/
Place Name Bib Gun Chip Pace Place by Sex City County
1 Zeilmann,Dom 2233 20:49.7 20:49.4 6:42 2 2 San Antonio TX
2 Estrella,David 2123 21:24.7 21:24.6 6:53 3 3 Helotes TX
3 Lara,Carlos 1565 23:12.5 23:10.8 7:28 8 7 San Antonio TX
4 Stratton,Jacob 1701 24:20.4 24:03.4 7:45 11 10 San Antonio TX
5 Ehler,Brian 1619 24:20.5 24:04.1 7:45 12 11 San Antonio TX
6 Hieb,Preston 1811 26:22.7 25:01.3 8:03 17 16 San Antonio TX
7 Hamilton,Jared 1808 26:37.3 25:13.3 8:07 18 17 San Antonio TX
8 Brown,Houston 1606 27:43.9 27:20.2 8:48 31 24 San Antonio TX
9 Elisco,Brian 2117 28:26.9 28:20.8 9:07 39 29 San Antonio TX
10 Muro,Nicholas 1837 31:48.8 31:43.3 10:13 59 36 Helotes TX
11 Shaw,Patrick 1697 33:05.8 33:02.3 10:38 66 38 San Antonio TX
12 Liza,Walter 1660 35:02.5 33:36.9 10:49 73 41 San Antonio TX
13 Valdivia,Rodolfo 2369 35:01.7 34:30.6 11:06 83 44 San Antonio TX
14 Cardenas,Gerardo 1583 38:49.2 37:27.2 12:03 105 52 San Antonio TX
15 Yanez,Ruben 2371 39:10.2 37:44.3 12:09 106 53 Helotes TX
16 Childers,Ryan 1723 41:01.0 40:26.7 13:01 127 61 San Antonio TX
17 Acosta,Issac 1592 43:05.0 42:53.5 13:48 137 63 San Antonio TX
18 L. Lovell,Leighton 2353 53:15.1 49:29.2 15:56 174 72 San Antonio TX
19 Garcia Jr,Francisco 2282 55:44.1 54:17.5 17:28 217 87 San Antonio TX
20 Lopez,Jesse 1567 56:29.2 56:09.1 18:04 238 93 San Antonio TX
21 Garcia,Jeremy 1558 56:28.9 56:10.0 18:05 241 94 San Antonio TX
22 Alvia,James 1717 58:38.0 57:16.5 18:26 261 96 San Antonio TX
23 Boyer,Ben 1604 59:17.8 57:45.3 18:35 269 100 San Antonio TX
24 Deleon,Concepcion 2109 58:42.0 58:10.8 18:44 273 101 San Antonio TX
25 Gonzales,Sonny 2326 59:07.6 58:13.6 18:44 276 103 Converse TX
26 More,Rakesh 1672 1:03:25.2 1:03:20.1 20:23 305 114 San Antonio TX
27 Garza,Jeremy 2235 1:04:26.3 1:03:21.0 20:23 306 115 San Antonio TX
Go To Top
40-49 Male
  Overall Overall State/
Place Name Bib Gun Chip Pace Place by Sex City County
1 Hoke,Matthew 2335 23:23.3 23:23.3 7:32 9 8 San Antonio TX
2 Gatanes,Ronald 2357 25:18.1 24:54.6 8:01 15 14 San Antonio TX
3 Guion,Chase 1586 31:18.3 26:12.5 8:26 23 20 San Antonio TX
4 Salgado,David 1920 27:57.3 27:53.1 8:58 35 28 San Antonio TX
5 Hall,Chris 1630 38:37.6 38:04.1 12:15 108 54 New Braunfels TX
6 Halinski,Patrick 2247 40:32.1 39:58.1 12:52 120 58 Fair Oaks Ranch TX
7 Estrada,Augie 1514 40:35.4 40:06.1 12:54 123 59 San Antonio TX
8 Paredes,Joe 2047 46:05.7 44:39.5 14:22 142 65 San Antonio TX
9 Esparza,John 1622 46:05.6 46:05.6 14:50 153 68 San Antonio TX
10 Rocha,Gilbert 1854 51:44.1 51:07.6 16:27 183 77 San Antonio TX
11 Paz,Albert 2048 56:24.8 52:45.8 16:59 199 80 San Antonio TX
12 Weaver,Michael 2352 53:42.8 52:59.1 17:03 202 81 Cibolo TX
13 Brien,Rex 1505 54:46.7 53:43.7 17:18 215 85 San Antonio TX
14 Carrillo,Rick 2226 55:46.0 55:23.1 17:50 235 91 San Antonio TX
15 Garza,Eugene 2017 1:00:33.6 59:26.2 19:08 287 108 Schertz TX
16 Stone,Matt 2295 1:03:54.2 1:02:53.5 20:15 300 113 San Antonio TX
Go To Top
50-59 Male
  Overall Overall State/
Place Name Bib Gun Chip Pace Place by Sex City County
1 Zoll,Chen 1544 22:02.3 22:02.3 7:06 5 4 San Antonio TX
2 Huerta,Hipolito 2359 24:30.8 24:27.9 7:52 14 13 San Antonio TX
3 Kukla,Guy 1820 26:10.4 25:45.6 8:17 19 18 San Antonio TX
4 Farhart,Scott 1796 26:45.6 26:41.9 8:36 26 21 San Antonio TX
5 Friedrichsen,Scott 1950 27:52.5 27:33.0 8:52 32 25 Shavano Park TX
6 Snell,Milton 1700 30:13.5 30:06.6 9:41 50 33 Converse TX
7 Cline,Michael 1724 31:47.2 31:36.7 10:10 57 35 Boerne TX
8 Alvarez,Eduardo 1596 33:44.3 33:34.7 10:48 70 39 Lake Jackson TX
9 Shoup,Chris 1866 35:04.2 34:33.1 11:07 84 45 San Antonio TX
10 Delafuente,Jeff 1927 35:36.1 34:50.2 11:13 86 46 San Antonio TX
11 Mcintosh,Keith 2265 35:44.7 35:34.9 11:27 92 47 San Antonio TX
12 Pabon,Joe 2281 39:54.6 38:59.5 12:33 111 55 San Antonio TX
13 Murphy,Paul 1838 46:49.8 45:04.6 14:31 147 67 Universal City TX
14 Ponce,Christopher 2183 48:07.1 46:38.9 15:01 155 69 Cayon Lake TX
15 Hires,Gerald 1643 49:09.6 48:05.9 15:29 161 70 La Vernia TX
16 Mcfarlane,Robert 2024 48:53.1 48:46.5 15:42 165 71 San Antonio TX
17 Bandoske,Ned 1719 50:43.8 49:59.8 16:06 175 73 Helotes TX
18 Loud,Donald 1825 51:04.7 50:31.4 16:16 176 74 Sa TX
19 Mutz,Elmore 1746 51:14.1 50:59.8 16:25 180 76 Floresville TX
20 Bernard,Mark 1995 52:54.4 52:27.1 16:53 196 79 New Braunfels TX
21 Reeve,Graham 1977 54:41.5 53:08.2 17:06 205 82 Boerne TX
22 De Jongh,Robert 2260 59:21.9 58:25.2 18:48 280 105 San Antonio TX
23 Parma,Tim 2180 1:00:26.8 59:13.6 19:04 285 107 San Antonio TX
24 Morrison,Danny 2174 1:01:44.1 59:40.3 19:12 290 109 Pipe Creek TX
25 Gibbs,Arthur 1733 1:07:31.0 1:06:26.3 21:23 314 117 San Antonio TX
Go To Top
60-99 Male
  Overall Overall State/
Place Name Bib Gun Chip Pace Place by Sex City County
1 Lara,Juvenal 2304 27:46.9 27:43.6 8:55 33 26 San Antonio TX
2 Gonzales,Johnny 1806 29:15.4 28:30.2 9:10 40 30 San Antonio TX
3 Canales,Romeo 2238 32:28.0 32:23.0 10:25 61 37 San Antonio TX
4 Ramos,Anastacio David 1754 37:02.8 36:55.5 11:53 101 50 San Antonio TX
5 Roser,Bruce 2195 54:30.6 53:38.1 17:16 212 84 San Antonio TX
6 Sager,Marc 1984 56:03.2 55:08.3 17:45 226 89 San Antonio TX
7 Orgill,Larry 1750 57:54.0 57:45.2 18:35 268 99 San Antonio TX
8 Stark,Steven 1878 59:00.9 58:15.5 18:45 277 104 Schertz TX
9 Zunker,John 2041 59:42.2 58:47.2 18:55 283 106 San Antonio TX
10 Kirk,Samuel 2155 1:02:28.5 1:00:49.6 19:35 294 110 San Antonio TX
Go To Top
1-12 Female
  Overall Overall State/
Place Name Bib Gun Chip Pace Place by Sex City County
1 Young,Malorie 1715 34:22.4 33:58.7 10:56 75 34 San Antonio TX
2 Waskow,Cameryn 2223 37:50.1 37:22.5 12:02 103 52 San Antonio TX
3 Halinski,Annie 2248 40:32.1 39:58.0 12:52 119 62 Fair Oaks Ranch TX
4 Halinski,Claire 2249 40:32.1 39:58.7 12:52 122 64 Fair Oaks Ranch TX
5 Collier,Zorianna 2367 43:59.5 42:36.1 13:43 136 74
6 Grace B.,Eloran 2346 45:57.6 45:57.6 14:48 151 84 Cibolo TX
7 Rudy,Devin 1692 49:51.6 49:09.9 15:49 168 97 San Antonio TX
8 Burlingame,Kristin 2356 53:06.0 49:19.7 15:53 170 99 San Antonio TX
9 Kailah 2354 53:06.2 49:20.6 15:53 171 100 San Antonio TX
10 E. Lino,Kihana 2355 53:06.4 49:20.6 15:53 172 101 San Antonio TX
11 Cardenas,Celeste 1585 53:30.1 52:08.0 16:47 190 112 San Antonio TX
12 Papion,Jayla 1751 53:42.3 53:40.9 17:17 214 130 San Antonio TX
13 Ripper,Alyssa 1982 58:37.6 56:46.4 18:16 251 156 Helotes TX
Go To Top
13-19 Female
  Overall Overall State/
Place Name Bib Gun Chip Pace Place by Sex City County
1 Hoke,Piper 2336 28:37.9 28:37.9 9:13 43 12 San Antonio TX
2 White,Delaney 1581 51:37.0 46:58.3 15:07 157 88 Boerne TX
3 Ripper,Alaina 1981 56:59.3 55:08.5 17:45 227 138 Helotes TX
4 Soria,Mary 2259 57:38.7 56:50.4 18:18 253 158 San Antonio TX
5 Castaneda,Flora 1906 57:31.7 56:55.1 18:19 258 163 San Antonio TX
6 Gonzales,Angeli 2328 58:13.9 57:22.8 18:28 265 167 Converse TX
7 Gibbs,Nevaeh 1734 1:07:31.2 1:06:26.4 21:23 315 198 San Antonio TX
Go To Top
20-29 Female
  Overall Overall State/
Place Name Bib Gun Chip Pace Place by Sex City County
1 Acosta,Salena 1591 25:57.3 25:48.0 8:18 21 2 San Antonio TX
2 Alvarez,Clarissa 1594 28:10.7 28:00.7 9:01 36 8 San Antonio TX
3 Sidhu,Himroz 1867 29:52.5 29:40.8 9:33 46 14 San Antonio TX
4 Sanmiguel,Alba 2050 31:19.6 30:25.7 9:48 52 18 San Antonio TX
5 Rico,Jacqueline 1853 31:48.9 30:55.0 9:57 54 20 Kirby TX
6 Gonzalez,Ericka 2135 32:42.7 32:18.6 10:24 60 24 San Antonio TX
7 Zendarski,Autumn 1901 32:49.9 32:30.3 10:28 62 25 San Antonio TX
8 Klaus,Alyssa 1818 33:11.8 33:08.4 10:40 67 29 San Antonio TX
9 Bock,Ruth 1602 34:24.1 33:09.8 10:40 68 30 New Braunfels TX
10 Montemayor,Triana 2173 34:12.8 34:02.2 10:57 77 36 San Antonio TX
11 Grissom,Michelle 1915 35:24.8 35:22.8 11:23 88 42 San Antonio TX
12 Snow,Tyler 1871 35:57.2 35:29.2 11:25 90 44 New Braunfels TX
13 Mercurio,Lauren 1670 36:48.2 36:37.0 11:47 98 49 San Antonio TX
14 Pattn,Nanuy 2362 36:54.7 36:51.2 11:52 100 51 San Antonio TX
15 Cisne,Candyce 2350 40:32.4 39:54.3 12:51 118 61
16 Rainer,Megan 2030 41:12.8 40:54.0 13:10 130 69 New Braunfels TX
17 Hernandez,Zahira 1916 46:03.7 46:00.5 14:48 152 85 San Antonio TX
18 White,Skylar 1580 51:38.2 46:59.0 15:07 158 89 Boerne TX
19 Pickett,Keandra 2306 56:59.1 48:30.2 15:37 163 93 Hutto T TX
20 Avalos,Misi 1718 48:36.3 48:34.7 15:38 164 94 San Antonio TX
21 Ford,Kristine 2365 51:04.7 50:32.2 16:16 177 103 San Antonio TX
22 Gomez,Laura 1736 52:41.5 52:35.8 16:56 198 119 Hondo TX
23 Childers,Candis 1722 53:43.5 53:09.3 17:07 206 124 San Antonio TX
24 Tobar,Eugenia 1886 56:12.7 54:31.3 17:33 218 131 San Antonio TX
25 Espinoza,Krissy 1623 55:30.6 54:50.0 17:39 222 134 San Antonio TX
26 Lozano,Amanda 1662 58:57.9 56:18.1 18:07 245 151 San Antonio TX
27 Strubhart,Lindsey 1702 58:59.1 56:38.7 18:14 249 154 Boerne TX
28 Campbell,Meshea 1905 57:31.9 56:54.4 18:19 255 160 San Antonio TX
29 Estrada-hollingswort,Lauren 2302 57:32.0 56:54.6 18:19 257 162 San Antonio TX
30 Kovacebich,Sally 2157 57:31.6 56:55.7 18:19 259 164 San Antonio TX
31 Dubois,Wellesley 1945 58:38.1 57:16.9 18:26 262 166 San Antonio TX
32 Randol,Macie 2070 58:25.7 58:03.3 18:41 271 171 San Antonio TX
33 Welp,Stephanie 2072 58:25.7 58:03.8 18:41 272 172 San Antonio TX
34 Hornback,Jennieva 2325 59:07.7 58:16.5 18:45 279 175 Converse TX
35 Cotton,Sarah 1511 1:00:53.4 59:35.8 19:11 288 180 San Antonio TX
36 Morgan,Emily 1527 1:00:52.7 59:35.8 19:11 289 181 San Antonio TX
37 Esquivel,Veronia 2234 1:04:26.2 1:03:19.0 20:23 304 191 San Antonio TX
38 Higgerson,Elizabeth 2063 1:07:43.0 1:07:00.7 21:34 316 199 San Antonio TX
39 Wickizer,Rabecka 1895 1:09:51.8 1:08:56.1 22:11 317 200 San Antonio TX
Go To Top
30-39 Female
  Overall Overall State/
Place Name Bib Gun Chip Pace Place by Sex City County
1 Guion,Lynn 1587 26:23.6 26:19.6 8:28 24 4 San Antonio TX
2 Muro,Lindsey 1836 26:33.9 26:28.1 8:31 25 5 Helotes TX
3 Long,Lindsay 2021 26:54.2 26:49.4 8:38 27 6 Cibolo TX
4 Cruz,Priscilla 1788 27:06.3 27:03.7 8:43 29 7 San Antonio TX
5 Elisco,Viola 2118 28:26.9 28:20.5 9:07 38 10 San Antonio TX
6 Duchamp,Bebe 1617 29:20.4 28:31.6 9:11 41 11 San Antonio TX
7 De Los Santos,Gracie 1726 29:32.3 29:31.5 9:30 45 13 San Antonio TX
8 Jones,Ashley 1815 30:37.3 30:29.7 9:49 53 19 San Antonio TX
9 Cooley,Natalya 1908 31:52.5 31:36.9 10:11 58 23 Converse TX
10 Martinez,Jessica 1829 32:49.7 32:30.3 10:28 63 26 San Antonio TX
11 Whiteaker,Betsy 2039 33:02.8 32:32.4 10:28 64 27 Spring Branch TX
12 Yanez,Elizabeth 2370 33:54.2 33:22.7 10:45 69 31
13 Pearce,Erica 1680 35:15.3 34:23.9 11:04 80 38 Bulverde TX
14 Sugarek,Kelsey 1881 34:38.0 34:30.4 11:06 82 39 San Antonio TX
15 Moon,Crisann 1971 34:50.4 34:39.2 11:09 85 40 Universal City TX
16 Munoz,Azalea 1676 36:18.1 35:27.7 11:25 89 43 San Antonio TX
17 Thoele,Erin 2315 36:08.7 35:30.9 11:26 91 45 Canyon Lake TX
18 Cox,Mariela 2004 35:59.9 35:42.1 11:29 93 46 Schertz TX
19 Zeilmann,Roxy 2232 36:49.4 35:47.7 11:31 94 47 San Antonio TX
20 Cox,Allison 2005 36:12.3 35:55.2 11:34 96 48 Cibolo TX
21 Garcia,Cristina 1515 37:02.6 36:50.1 11:51 99 50 San Antonio TX
22 Hall,Lesley 1629 37:59.7 37:25.3 12:03 104 53 New Braunfels TX
23 Hays,Angel 1635 39:06.1 38:20.3 12:20 109 55 San Antonio TX
24 Bayne,Ema 2060 39:15.2 38:56.3 12:32 110 56 San Antonio TX
25 Pickett,Serena 2307 48:05.5 39:36.5 12:45 114 58 Hutto T TX
26 Pfeiffer,Jessica 1975 40:44.7 40:17.0 12:58 126 66 New Braunfels TX
27 Dobry,Rebecca 1793 42:21.1 40:59.6 13:12 131 70 San Antonio TX
28 Collier,Hecdris 1610 43:59.0 42:35.7 13:43 135 73 San Antonio TX
29 Hamilton,Jessica 1807 45:48.4 44:26.4 14:18 141 77 San Antonio TX
30 Crawford,Shalena 1612 45:26.1 44:51.9 14:26 144 78 San Antonio TX
31 Perez,Felicia 2269 47:48.5 47:48.5 15:23 160 91 San Antonio TX
32 Rhodes,Jennifer 1687 49:52.3 49:08.7 15:49 167 96 San Antonio TX
33 Lino,Maria 1657 53:14.6 49:29.1 15:56 173 102 San Antonio TX
34 Montenegro,Erica 2258 52:19.1 51:58.2 16:44 189 111 San Antonio TX
35 Cardenas,Yanet 1584 53:30.0 52:12.0 16:48 191 113 San Antonio TX
36 Liza,Ana 1659 53:30.1 52:12.3 16:48 192 114 San Antonio TX
37 Dominguez,Naomi 1794 54:08.7 52:27.2 16:53 197 118 San Antonio TX
38 Koenning,Tammy 2020 56:11.5 53:01.2 17:04 204 123 Garden Ridge TX
39 Housman,Lori 1645 55:30.1 54:48.8 17:39 221 133 Helotes TX
40 Rodriguez,Lupita 1531 55:35.0 55:08.1 17:45 225 137 Leon Valley TX
41 Morales,Graciela 2067 55:28.8 55:10.0 17:45 229 139 San Antonio TX
42 Hoke,Abbie 2334 55:33.7 55:16.6 17:47 231 141 San Antonio TX
43 Flores,Johanna 2228 55:45.2 55:22.3 17:49 234 144 San Antonio TX
44 Medina,Amanda 2026 56:53.1 56:09.4 18:04 240 147 Kyle TX
45 Snider,Barbara 2263 56:28.8 56:10.5 18:05 243 149 Boerne TX
46 Muennink,Regina 1674 58:56.4 56:16.1 18:07 244 150 Hondo TX
47 Duran,Teresa 2110 57:31.9 56:54.6 18:19 256 161 San Antonio TX
48 Boyer,Cindy 1603 59:16.2 57:44.1 18:35 267 169 San Antonio TX
49 Garza,Amanda 2339 58:42.1 58:11.1 18:44 274 173 Poteet TX
50 Woods,Vashti 1926 1:01:42.4 1:01:27.1 19:47 297 186 San Antonio TX
51 Pethani,Sonia 2364 1:03:25.6 1:02:58.8 20:16 301 188 San Antonio TX
52 Kachhadia,Bhumika 1564 1:03:24.4 1:03:00.4 20:17 302 189 San Antonio TX
53 Faner,Maria 1947 1:06:59.1 1:05:45.9 21:10 311 196 San Antonio TX
54 Guerra,Ariana 1954 1:07:05.6 1:05:53.4 21:12 312 197 Live Oak TX
55 Keilmann,Tara 1744 1:11:13.4 1:10:22.0 22:39 318 201 San Antonio TX
Go To Top
40-49 Female
  Overall Overall State/
Place Name Bib Gun Chip Pace Place by Sex City County
1 Mahar Garcia,Deborah 2023 26:01.2 25:59.7 8:22 22 3 Canyon Lake TX
2 Mendoza,Irma 1522 29:52.8 28:04.6 9:02 37 9 San Antonio TX
3 Dear,Vicki 1512 31:36.7 29:48.2 9:36 48 16 La Vernia TX
4 Kukla,Gina 1819 30:24.5 30:04.5 9:41 49 17 San Antonio TX
5 Gasana,Angelique 1800 32:01.8 31:07.1 10:01 55 21 San Antonio TX
6 Young,Stephanie 1714 34:23.5 34:00.9 10:57 76 35 San Antonio TX
7 Arredondo,Cristina 1502 34:17.7 34:08.7 10:59 78 37 San Antonio TX
8 Lee,Ming 1653 35:52.8 35:16.8 11:21 87 41 San Antonio TX
9 Gambino,Connie 2011 38:17.8 37:47.8 12:10 107 54 New Braunfels TX
10 Rainer,Kim 2029 39:19.2 39:01.2 12:34 112 57 New Braunfels TX
11 Butler,Danyl 2000 40:33.5 39:58.3 12:52 121 63 New Braunfels TX
12 Estrada,Mary 2121 41:20.6 40:34.1 13:03 128 67 San Antonio TX
13 Hernanadez,Angela 2368 40:46.7 40:44.5 13:07 129 68 San Antonio TX
14 Hernandez,Janie 1561 42:45.5 42:29.3 13:41 133 71 San Antonio TX
15 Ramos,Jennifer 1573 42:45.6 42:29.4 13:41 134 72 Cibolo TX
16 Harrison,Shari 1738 43:19.3 43:08.6 13:53 140 76 San Antonio TX
17 Hocking,Anna 2065 45:26.3 44:53.0 14:27 145 79 San Antonio TX
18 Wilkens,Rosalie 1898 46:51.3 45:05.9 14:31 148 81 Universal City TX
19 Arredondo,Alicia 1550 53:15.1 50:54.8 16:23 179 104 San Antonio TX
20 Copes,Liz 1787 53:16.8 51:49.0 16:41 187 109 Spring Branch TX
21 Andal,Emelita 2077 52:19.1 51:57.7 16:43 188 110 San Antonio TX
22 Castillo,Jessica 1783 54:07.7 52:26.1 16:53 194 116 San Antonio TX
23 Paz,Veronica 2049 56:24.9 52:46.0 16:59 200 120 San Antonio TX
24 Lohmann,Jessica 2320 53:42.6 52:59.3 17:03 203 122 Schertz TX
25 Chavez,Melissa 2288 53:28.7 53:13.7 17:08 208 126 San Antonio TX
26 Spears,Veronica 1922 53:27.9 53:13.8 17:08 209 127 San Antonio TX
27 Cardenas,Elizabeth 2001 54:38.3 53:27.5 17:12 210 128 San Antonio TX
28 Espinoza,Cindy 1624 55:29.8 54:47.3 17:38 219 132 San Antonio TX
29 Delafuente,Danielle 1944 56:05.7 55:10.1 17:45 230 140 San Antonio TX
30 Chavis,Liezl 2299 56:13.6 56:10.2 18:05 242 148 Schertz TX
31 Garza,Rhonda 1799 57:33.9 56:25.8 18:10 248 153 Schertz TX
32 Ripper,Becky 1980 58:37.1 56:46.3 18:16 250 155 Helotes TX
33 Zamora,Mary 1543 57:37.6 56:49.6 18:17 252 157 San Antonio TX
34 Vrba,Andrea 2071 58:47.5 58:25.3 18:48 281 176 San Antonio TX
35 Alaniz,Elizabeth 1770 59:24.1 59:10.9 19:03 284 178 San Antonio TX
36 Weidlich,Karen 2317 1:01:35.4 1:00:09.6 19:22 293 184 Leon Valley TX
37 Wilson,Jennifer 2073 1:02:14.4 1:01:33.3 19:49 298 187 San Antonio TX
38 Collett,Robin 2061 1:06:35.5 1:05:10.8 20:59 309 194 San Antonio TX
39 Rico,Cathy 1979 1:06:57.8 1:05:44.8 21:10 310 195 San Antonio TX
Go To Top
50-59 Female
  Overall Overall State/
Place Name Bib Gun Chip Pace Place by Sex City County
1 Robinson,Shelley 1530 29:58.8 29:46.1 9:35 47 15 San Antonio TX
2 Mcintosh,Pamela 2266 31:27.6 31:18.2 10:05 56 22 San Antonio TX
3 Alvarez,Sandra 1595 32:48.4 32:38.7 10:30 65 28 Lake Jackson TX
4 Bustos,Sandy 1779 33:51.5 33:36.6 10:49 72 32 San Antono TX
5 Suarez,Mariana 1923 33:52.8 33:50.4 10:54 74 33 Universal City TX
6 Friedrichsen,Kathy 1949 39:57.2 39:36.6 12:45 115 59 Shavano Park TX
7 Pabon,Raquel 2280 40:39.9 39:45.1 12:48 116 60 San Antonio TX
8 Mullen,Sue 2310 40:35.7 40:13.9 12:57 124 65 San Antonio TX
9 Vega,Janette 1590 46:41.2 42:56.0 13:49 139 75 San Antonio TX
10 Brown,Sharon 1605 45:01.7 45:00.9 14:29 146 80 San Antonio TX
11 Turton,Kendall 1887 45:36.4 45:24.5 14:37 149 82 San Antonio TX
12 Reeve,Kelly 1978 45:36.2 45:34.1 14:40 150 83 Boerne TX
13 Scott,Jill 1761 46:36.4 46:08.7 14:51 154 86 San Antonio TX
14 White,Jenniferlee 1579 51:38.1 46:59.4 15:07 159 90 Boerne TX
15 Pinard-mcfarlane,Lynne 2028 48:53.3 48:46.9 15:42 166 95 San Antonio TX
16 Spinharney,Sarah 1987 52:22.5 51:25.3 16:33 185 107 San Antonio TX
17 Mutz,Judy 1747 51:44.8 51:29.1 16:34 186 108 Floresville TX
18 Friesenhahn,Sabrina 2042 53:17.0 52:17.6 16:50 193 115 San Antonio TX
19 Bernard,Kay 1996 52:54.3 52:26.9 16:53 195 117 New Braunfels TX
20 Rogers,Rhonda 2033 53:24.5 52:51.9 17:01 201 121 New Braunfels TX
21 Chaudhary,Pramila 2303 53:27.8 53:13.5 17:08 207 125 San Antonio TX
22 Leclair,Diane 2159 54:30.5 53:38.3 17:16 213 129 San Antonio TX
23 Cardona,Sherrie 1721 55:05.6 54:56.6 17:41 223 135 San Antonio TX
24 Saenz,Lisa 1861 56:25.0 55:06.0 17:44 224 136 Boerne TX
25 Simmons,Rosa 1868 56:13.9 55:21.3 17:49 233 143 San Antonio TX
26 Lopez,Diane 1967 57:04.5 56:54.2 18:19 254 159 San Antonio TX
27 Castaneda,Alma 1938 58:05.3 57:09.9 18:24 260 165 Cibolo TX
28 Hollingsworth,Sara 2301 58:27.0 57:49.9 18:37 270 170 San Antonio TX
29 Drisdale,April 1911 58:31.4 58:15.7 18:45 278 174 San Antonio TX
30 Turner,Pamela 2214 58:42.4 58:42.4 18:54 282 177 Schertz TX
31 Glacken,Karen 2018 1:00:07.2 59:47.8 19:15 291 182 New Braunfels TX
32 Sailors,Natalie 2035 1:00:07.6 59:48.0 19:15 292 183 New Braunfels TX
33 Dixon,Donna 2257 1:03:38.9 1:03:18.7 20:23 303 190 San Antonio TX
34 Hernandez,Lupita 2347 1:05:23.7 1:04:08.6 20:39 307 192
Go To Top
60-99 Female
  Overall Overall State/
Place Name Bib Gun Chip Pace Place by Sex City County
1 Blankenship,Pat 1551 47:35.4 46:46.1 15:03 156 87 Elmendorf TX
2 Valdez,Mary 1578 49:13.7 48:24.1 15:35 162 92 Elmendorf TX
3 Monahan,Susan 1918 49:16.8 49:11.8 15:50 169 98 San Antonio TX
4 Holdstein,Sandra 1812 52:24.8 51:02.2 16:26 181 105 San Antonio TX
5 Martin,Alicia 1828 52:25.0 51:03.2 16:26 182 106 San Antonio TX
6 Mcdowell,Denise 2338 55:34.2 55:16.6 17:47 232 142 San Antonio TX
7 Gonzalez,Laura 2358 55:49.6 55:25.9 17:50 236 145 San Antonio TX
8 Medina,Teresa 2027 56:52.9 56:09.2 18:04 239 146 Kyle TX
9 Mendoza,Angelita 2300 56:22.0 56:18.1 18:07 246 152 Schertz TX
10 Stark,Patricia 1877 58:18.4 57:32.4 18:31 266 168 Schertz TX
11 Parma,Linda 2179 1:00:26.4 59:14.5 19:04 286 179 San Antonio TX
12 Bruce,Janet 1934 1:02:28.6 1:00:49.9 19:35 295 185 San Antonio TX
13 Candens,Susan 2348 1:05:23.7 1:04:09.0 20:39 308 193 Universal City TX